sensor_id;sensor_type;location;lat;lon;timestamp;pressure;altitude;pressure_sealevel;temperature;humidity
84967;BME280;75275;51.348;12.358;2024-02-21T00:01:42;101108.25;;;9.49;61.32
84967;BME280;75275;51.348;12.358;2024-02-21T00:04:11;101110.81;;;9.55;61.33
84967;BME280;75275;51.348;12.358;2024-02-21T00:06:38;101106.59;;;9.48;61.08
84967;BME280;75275;51.348;12.358;2024-02-21T00:09:04;101101.13;;;9.48;61.59
84967;BME280;75275;51.348;12.358;2024-02-21T00:11:31;101083.84;;;9.47;61.40
84967;BME280;75275;51.348;12.358;2024-02-21T00:13:58;101096.97;;;9.45;61.08
84967;BME280;75275;51.348;12.358;2024-02-21T00:16:26;101088.16;;;9.43;61.60
84967;BME280;75275;51.348;12.358;2024-02-21T00:18:53;101087.31;;;9.43;61.43
84967;BME280;75275;51.348;12.358;2024-02-21T00:21:20;101083.69;;;9.37;61.41
84967;BME280;75275;51.348;12.358;2024-02-21T00:23:47;101083.69;;;9.37;61.66
84967;BME280;75275;51.348;12.358;2024-02-21T00:26:16;101079.28;;;9.36;61.44
84967;BME280;75275;51.348;12.358;2024-02-21T00:28:42;101075.72;;;9.35;62.06
84967;BME280;75275;51.348;12.358;2024-02-21T00:31:10;101075.38;;;9.32;62.05
84967;BME280;75275;51.348;12.358;2024-02-21T00:33:39;101077.28;;;9.31;62.01
84967;BME280;75275;51.348;12.358;2024-02-21T00:36:07;101064.91;;;9.29;62.09
84967;BME280;75275;51.348;12.358;2024-02-21T00:38:33;101072.31;;;9.28;61.87
84967;BME280;75275;51.348;12.358;2024-02-21T00:41:00;101067.66;;;9.29;61.97
84967;BME280;75275;51.348;12.358;2024-02-21T00:43:27;101066.00;;;9.28;61.59
84967;BME280;75275;51.348;12.358;2024-02-21T00:45:54;101062.78;;;9.31;61.92
84967;BME280;75275;51.348;12.358;2024-02-21T00:48:21;101056.81;;;9.34;61.89
84967;BME280;75275;51.348;12.358;2024-02-21T00:50:49;101047.44;;;9.30;62.01
84967;BME280;75275;51.348;12.358;2024-02-21T00:53:17;101045.53;;;9.30;61.55
84967;BME280;75275;51.348;12.358;2024-02-21T00:55:44;101045.53;;;9.30;61.35
84967;BME280;75275;51.348;12.358;2024-02-21T00:58:11;101040.31;;;9.29;61.33
84967;BME280;75275;51.348;12.358;2024-02-21T01:00:38;101038.06;;;9.26;61.80
84967;BME280;75275;51.348;12.358;2024-02-21T01:03:07;101039.06;;;9.20;61.77
84967;BME280;75275;51.348;12.358;2024-02-21T01:05:34;101042.97;;;9.24;62.29
84967;BME280;75275;51.348;12.358;2024-02-21T01:08:05;101031.09;;;9.18;61.88
84967;BME280;75275;51.348;12.358;2024-02-21T01:10:32;101036.91;;;9.22;62.04
84967;BME280;75275;51.348;12.358;2024-02-21T01:13:11;101030.38;;;9.23;61.28
84967;BME280;75275;51.348;12.358;2024-02-21T01:15:38;101020.59;;;9.27;61.52
84967;BME280;75275;51.348;12.358;2024-02-21T01:18:04;101029.94;;;9.31;61.96
84967;BME280;75275;51.348;12.358;2024-02-21T01:20:31;101014.69;;;9.35;61.77
84967;BME280;75275;51.348;12.358;2024-02-21T01:22:59;101012.22;;;9.33;61.44
84967;BME280;75275;51.348;12.358;2024-02-21T01:28:11;101009.06;;;9.25;61.19
84967;BME280;75275;51.348;12.358;2024-02-21T01:30:38;101015.19;;;9.32;61.27
84967;BME280;75275;51.348;12.358;2024-02-21T01:33:05;101003.41;;;9.31;61.45
84967;BME280;75275;51.348;12.358;2024-02-21T01:35:32;101003.41;;;9.31;61.56
84967;BME280;75275;51.348;12.358;2024-02-21T01:37:58;100996.53;;;9.29;61.53
84967;BME280;75275;51.348;12.358;2024-02-21T01:40:27;100995.97;;;9.27;60.96
84967;BME280;75275;51.348;12.358;2024-02-21T01:42:58;100995.97;;;9.27;61.03
84967;BME280;75275;51.348;12.358;2024-02-21T01:45:25;100997.63;;;9.28;61.23
84967;BME280;75275;51.348;12.358;2024-02-21T01:47:52;100989.41;;;9.28;61.19
84967;BME280;75275;51.348;12.358;2024-02-21T01:50:19;100990.00;;;9.30;61.97
84967;BME280;75275;51.348;12.358;2024-02-21T01:52:48;100983.44;;;9.31;61.10
84967;BME280;75275;51.348;12.358;2024-02-21T01:55:17;100983.69;;;9.29;60.98
84967;BME280;75275;51.348;12.358;2024-02-21T01:57:47;100984.53;;;9.30;61.60
84967;BME280;75275;51.348;12.358;2024-02-21T02:00:14;100985.09;;;9.32;60.96
84967;BME280;75275;51.348;12.358;2024-02-21T02:02:42;100986.50;;;9.34;60.75
84967;BME280;75275;51.348;12.358;2024-02-21T02:05:10;100978.53;;;9.33;60.80
84967;BME280;75275;51.348;12.358;2024-02-21T02:07:37;100973.66;;;9.35;60.67
84967;BME280;75275;51.348;12.358;2024-02-21T02:10:05;100973.34;;;9.31;60.94
84967;BME280;75275;51.348;12.358;2024-02-21T02:12:32;100968.94;;;9.30;61.06
84967;BME280;75275;51.348;12.358;2024-02-21T02:15:00;100958.34;;;9.34;61.25
84967;BME280;75275;51.348;12.358;2024-02-21T02:17:30;100954.84;;;9.38;61.19
84967;BME280;75275;51.348;12.358;2024-02-21T02:19:56;100955.00;;;9.32;60.79
84967;BME280;75275;51.348;12.358;2024-02-21T02:22:25;100955.00;;;9.32;60.89
84967;BME280;75275;51.348;12.358;2024-02-21T02:24:56;100948.72;;;9.31;61.66
84967;BME280;75275;51.348;12.358;2024-02-21T02:27:23;100940.78;;;9.30;60.98
84967;BME280;75275;51.348;12.358;2024-02-21T02:29:51;100935.78;;;9.27;61.08
84967;BME280;75275;51.348;12.358;2024-02-21T02:32:19;100927.81;;;9.25;61.36
84967;BME280;75275;51.348;12.358;2024-02-21T02:34:45;100934.72;;;9.28;61.11
84967;BME280;75275;51.348;12.358;2024-02-21T02:37:12;100933.63;;;9.29;61.09
84967;BME280;75275;51.348;12.358;2024-02-21T02:39:39;100927.09;;;9.30;61.17
84967;BME280;75275;51.348;12.358;2024-02-21T02:42:08;100926.50;;;9.28;61.01
84967;BME280;75275;51.348;12.358;2024-02-21T02:44:35;100921.84;;;9.28;61.76
84967;BME280;75275;51.348;12.358;2024-02-21T02:47:03;100921.28;;;9.26;61.66
84967;BME280;75275;51.348;12.358;2024-02-21T02:49:30;100913.91;;;9.27;61.38
84967;BME280;75275;51.348;12.358;2024-02-21T02:51:59;100915.22;;;9.24;61.13
84967;BME280;75275;51.348;12.358;2024-02-21T02:54:28;100927.09;;;9.30;61.28
84967;BME280;75275;51.348;12.358;2024-02-21T02:56:55;100923.00;;;9.32;60.84
84967;BME280;75275;51.348;12.358;2024-02-21T02:59:23;100924.16;;;9.36;61.30
84967;BME280;75275;51.348;12.358;2024-02-21T03:01:50;100929.31;;;9.33;61.29
84967;BME280;75275;51.348;12.358;2024-02-21T03:04:17;100921.41;;;9.36;61.00
84967;BME280;75275;51.348;12.358;2024-02-21T03:06:43;100909.97;;;9.39;61.29
84967;BME280;75275;51.348;12.358;2024-02-21T03:09:12;100906.41;;;9.39;60.96
84967;BME280;75275;51.348;12.358;2024-02-21T03:11:41;100908.34;;;9.38;61.56
84967;BME280;75275;51.348;12.358;2024-02-21T03:14:09;100912.31;;;9.31;61.54
84967;BME280;75275;51.348;12.358;2024-02-21T03:16:38;100912.22;;;9.26;61.56
84967;BME280;75275;51.348;12.358;2024-02-21T03:19:05;100909.25;;;9.27;61.38
84967;BME280;75275;51.348;12.358;2024-02-21T03:21:34;100912.31;;;9.31;60.95
84967;BME280;75275;51.348;12.358;2024-02-21T03:24:01;100901.13;;;9.32;61.44
84967;BME280;75275;51.348;12.358;2024-02-21T03:26:28;100905.53;;;9.33;60.83
84967;BME280;75275;51.348;12.358;2024-02-21T03:28:55;100904.13;;;9.31;60.94
84967;BME280;75275;51.348;12.358;2024-02-21T03:31:22;100900.28;;;9.32;61.37
84967;BME280;75275;51.348;12.358;2024-02-21T03:33:50;100906.91;;;9.36;60.97
84967;BME280;75275;51.348;12.358;2024-02-21T03:36:17;100904.44;;;9.34;61.38
84967;BME280;75275;51.348;12.358;2024-02-21T03:38:44;100911.56;;;9.35;60.87
84967;BME280;75275;51.348;12.358;2024-02-21T03:41:13;100906.91;;;9.36;61.30
84967;BME280;75275;51.348;12.358;2024-02-21T03:43:39;100900.28;;;9.32;61.30
84967;BME280;75275;51.348;12.358;2024-02-21T03:46:06;100901.94;;;9.33;61.36
84967;BME280;75275;51.348;12.358;2024-02-21T03:48:34;100898.66;;;9.31;61.20
84967;BME280;75275;51.348;12.358;2024-02-21T03:51:03;100910.16;;;9.33;61.08
84967;BME280;75275;51.348;12.358;2024-02-21T03:53:34;100909.59;;;9.31;61.80
84967;BME280;75275;51.348;12.358;2024-02-21T03:56:04;100913.66;;;9.28;62.20
84967;BME280;75275;51.348;12.358;2024-02-21T03:58:32;100913.09;;;9.26;62.24
84967;BME280;75275;51.348;12.358;2024-02-21T04:01:00;100905.38;;;9.23;62.29
84967;BME280;75275;51.348;12.358;2024-02-21T04:03:28;100908.13;;;9.23;62.84
84967;BME280;75275;51.348;12.358;2024-02-21T04:05:55;100912.75;;;9.23;62.89
84967;BME280;75275;51.348;12.358;2024-02-21T04:08:25;100910.59;;;9.25;62.64
84967;BME280;75275;51.348;12.358;2024-02-21T04:10:52;100917.22;;;9.29;63.06
84967;BME280;75275;51.348;12.358;2024-02-21T04:13:19;100912.66;;;9.34;62.80
84967;BME280;75275;51.348;12.358;2024-02-21T04:15:48;100902.53;;;9.35;63.41
84967;BME280;75275;51.348;12.358;2024-02-21T04:18:15;100898.38;;;9.32;63.32
84967;BME280;75275;51.348;12.358;2024-02-21T04:20:42;100904.03;;;9.26;63.12
84967;BME280;75275;51.348;12.358;2024-02-21T04:23:09;100901.81;;;9.23;63.64
84967;BME280;75275;51.348;12.358;2024-02-21T04:25:37;100890.94;;;9.28;63.45
84967;BME280;75275;51.348;12.358;2024-02-21T04:28:07;100886.78;;;9.25;64.04
84967;BME280;75275;51.348;12.358;2024-02-21T04:30:34;100879.72;;;9.29;64.05
84967;BME280;75275;51.348;12.358;2024-02-21T04:33:00;100879.50;;;9.31;63.13
84967;BME280;75275;51.348;12.358;2024-02-21T04:35:27;100869.00;;;9.23;64.34
84967;BME280;75275;51.348;12.358;2024-02-21T04:37:54;100866.00;;;9.24;64.00
84967;BME280;75275;51.348;12.358;2024-02-21T04:40:23;100864.09;;;9.25;64.43
84967;BME280;75275;51.348;12.358;2024-02-21T04:45:34;100867.25;;;9.16;64.96
84967;BME280;75275;51.348;12.358;2024-02-21T04:48:01;100860.63;;;9.12;65.06
84967;BME280;75275;51.348;12.358;2024-02-21T04:50:28;100859.88;;;9.17;65.54
84967;BME280;75275;51.348;12.358;2024-02-21T04:52:55;100855.81;;;9.20;65.48
84967;BME280;75275;51.348;12.358;2024-02-21T04:55:21;100852.59;;;9.23;64.85
84967;BME280;75275;51.348;12.358;2024-02-21T04:57:48;100850.34;;;9.20;65.17
84967;BME280;75275;51.348;12.358;2024-02-21T05:00:15;100835.00;;;9.19;65.04
84967;BME280;75275;51.348;12.358;2024-02-21T05:02:44;100845.44;;;9.22;64.83
84967;BME280;75275;51.348;12.358;2024-02-21T05:05:11;100838.91;;;9.23;64.73
84967;BME280;75275;51.348;12.358;2024-02-21T05:07:39;100831.75;;;9.22;64.87
84967;BME280;75275;51.348;12.358;2024-02-21T05:10:08;100821.97;;;9.26;64.88
84967;BME280;75275;51.348;12.358;2024-02-21T05:12:35;100820.91;;;9.27;65.13
84967;BME280;75275;51.348;12.358;2024-02-21T05:15:02;100813.22;;;9.24;65.47
84967;BME280;75275;51.348;12.358;2024-02-21T05:17:29;100810.47;;;9.24;64.75
84967;BME280;75275;51.348;12.358;2024-02-21T05:19:58;100805.56;;;9.26;64.82
84967;BME280;75275;51.348;12.358;2024-02-21T05:22:25;100806.72;;;9.30;64.88
84967;BME280;75275;51.348;12.358;2024-02-21T05:24:51;100803.41;;;9.28;65.18
84967;BME280;75275;51.348;12.358;2024-02-21T05:27:18;100803.34;;;9.23;65.15
84967;BME280;75275;51.348;12.358;2024-02-21T05:29:47;100800.53;;;9.18;65.11
84967;BME280;75275;51.348;12.358;2024-02-21T05:32:16;100795.56;;;9.14;64.86
84967;BME280;75275;51.348;12.358;2024-02-21T05:34:48;100795.06;;;9.18;65.53
84967;BME280;75275;51.348;12.358;2024-02-21T05:37:17;100791.50;;;9.17;64.81
84967;BME280;75275;51.348;12.358;2024-02-21T05:39:44;100793.91;;;9.13;64.84
84967;BME280;75275;51.348;12.358;2024-02-21T05:42:11;100780.75;;;9.10;65.13
84967;BME280;75275;51.348;12.358;2024-02-21T05:44:38;100785.97;;;9.12;65.67
84967;BME280;75275;51.348;12.358;2024-02-21T05:47:05;100787.56;;;9.08;65.45
84967;BME280;75275;51.348;12.358;2024-02-21T05:49:35;100793.34;;;9.11;65.54
84967;BME280;75275;51.348;12.358;2024-02-21T05:52:04;100790.53;;;9.06;65.38
84967;BME280;75275;51.348;12.358;2024-02-21T05:54:37;100788.31;;;9.03;65.89
84967;BME280;75275;51.348;12.358;2024-02-21T05:57:07;100788.56;;;9.02;65.36
84967;BME280;75275;51.348;12.358;2024-02-21T05:59:37;100787.16;;;8.99;65.56
84967;BME280;75275;51.348;12.358;2024-02-21T06:02:05;100780.91;;;9.04;65.25
84967;BME280;75275;51.348;12.358;2024-02-21T06:04:32;100772.97;;;9.02;66.12
84967;BME280;75275;51.348;12.358;2024-02-21T06:06:59;100753.19;;;8.95;65.53
84967;BME280;75275;51.348;12.358;2024-02-21T06:09:25;100758.53;;;8.85;66.19
84967;BME280;75275;51.348;12.358;2024-02-21T06:11:54;100753.75;;;8.75;66.86
84967;BME280;75275;51.348;12.358;2024-02-21T06:14:21;100759.38;;;8.68;67.20
84967;BME280;75275;51.348;12.358;2024-02-21T06:16:48;100764.75;;;8.63;67.74
84967;BME280;75275;51.348;12.358;2024-02-21T06:19:15;100753.44;;;8.55;67.43
84967;BME280;75275;51.348;12.358;2024-02-21T06:21:43;100744.31;;;8.49;67.28
84967;BME280;75275;51.348;12.358;2024-02-21T06:24:10;100747.56;;;8.46;67.72
84967;BME280;75275;51.348;12.358;2024-02-21T06:26:38;100747.91;;;8.50;67.75
84967;BME280;75275;51.348;12.358;2024-02-21T06:29:07;100774.97;;;8.51;67.65
84967;BME280;75275;51.348;12.358;2024-02-21T06:31:35;100777.28;;;8.59;67.92
84967;BME280;75275;51.348;12.358;2024-02-21T06:34:04;100788.09;;;8.71;68.12
84967;BME280;75275;51.348;12.358;2024-02-21T06:36:31;100795.06;;;8.79;67.27
84967;BME280;75275;51.348;12.358;2024-02-21T06:38:58;100785.34;;;8.88;67.63
84967;BME280;75275;51.348;12.358;2024-02-21T06:41:25;100791.78;;;8.99;66.69
84967;BME280;75275;51.348;12.358;2024-02-21T06:43:52;100799.00;;;9.05;66.87
84967;BME280;75275;51.348;12.358;2024-02-21T06:46:24;100805.78;;;9.02;66.47
84967;BME280;75275;51.348;12.358;2024-02-21T06:48:51;100817.13;;;9.11;66.31
84967;BME280;75275;51.348;12.358;2024-02-21T06:51:18;100810.81;;;9.10;66.31
84967;BME280;75275;51.348;12.358;2024-02-21T06:53:45;100823.50;;;9.16;66.20
84967;BME280;75275;51.348;12.358;2024-02-21T06:56:12;100828.47;;;9.20;66.34
84967;BME280;75275;51.348;12.358;2024-02-21T06:58:39;100825.22;;;9.23;65.90
84967;BME280;75275;51.348;12.358;2024-02-21T07:01:06;100825.78;;;9.25;65.97
84967;BME280;75275;51.348;12.358;2024-02-21T07:03:35;100839.41;;;9.20;65.51
84967;BME280;75275;51.348;12.358;2024-02-21T07:06:03;100838.31;;;9.21;65.66
84967;BME280;75275;51.348;12.358;2024-02-21T07:08:30;100849.31;;;9.26;65.83
84967;BME280;75275;51.348;12.358;2024-02-21T07:10:57;100839.56;;;9.30;65.25
84967;BME280;75275;51.348;12.358;2024-02-21T07:13:24;100835.72;;;9.31;65.21
84967;BME280;75275;51.348;12.358;2024-02-21T07:15:51;100817.91;;;9.28;65.09
84967;BME280;75275;51.348;12.358;2024-02-21T07:18:17;100833.56;;;9.33;64.88
84967;BME280;75275;51.348;12.358;2024-02-21T07:20:46;100826.94;;;9.29;65.29
84967;BME280;75275;51.348;12.358;2024-02-21T07:23:14;100842.63;;;9.33;65.22
84967;BME280;75275;51.348;12.358;2024-02-21T07:25:41;100831.25;;;9.25;65.36
84967;BME280;75275;51.348;12.358;2024-02-21T07:28:08;100831.25;;;9.25;65.44
84967;BME280;75275;51.348;12.358;2024-02-21T07:30:35;100836.66;;;9.20;65.69
84967;BME280;75275;51.348;12.358;2024-02-21T07:33:02;100835.53;;;9.15;65.62
84967;BME280;75275;51.348;12.358;2024-02-21T07:35:29;100841.31;;;9.19;65.38
84967;BME280;75275;51.348;12.358;2024-02-21T07:37:58;100838.59;;;9.19;65.05
84967;BME280;75275;51.348;12.358;2024-02-21T07:40:25;100840.28;;;9.25;64.67
84967;BME280;75275;51.348;12.358;2024-02-21T07:42:51;100832.41;;;9.29;64.53
84967;BME280;75275;51.348;12.358;2024-02-21T07:45:18;100828.94;;;9.33;64.92
84967;BME280;75275;51.348;12.358;2024-02-21T07:47:49;100827.03;;;9.34;64.93
84967;BME280;75275;51.348;12.358;2024-02-21T07:50:16;100819.66;;;9.34;64.33
84967;BME280;75275;51.348;12.358;2024-02-21T07:52:46;100818.38;;;9.42;64.31
84967;BME280;75275;51.348;12.358;2024-02-21T07:55:18;100803.59;;;9.43;64.29
84967;BME280;75275;51.348;12.358;2024-02-21T07:57:45;100806.19;;;9.55;64.24
84967;BME280;75275;51.348;12.358;2024-02-21T08:00:12;100799.47;;;9.62;63.21
84967;BME280;75275;51.348;12.358;2024-02-21T08:02:45;100792.41;;;9.67;63.12
84967;BME280;75275;51.348;12.358;2024-02-21T08:05:12;100784.25;;;9.72;62.78
84967;BME280;75275;51.348;12.358;2024-02-21T08:07:39;100781.56;;;9.77;62.98
84967;BME280;75275;51.348;12.358;2024-02-21T08:10:09;100773.28;;;9.72;62.68
84967;BME280;75275;51.348;12.358;2024-02-21T08:12:38;100775.53;;;9.75;62.79
84967;BME280;75275;51.348;12.358;2024-02-21T08:15:06;100770.09;;;9.80;62.93
84967;BME280;75275;51.348;12.358;2024-02-21T08:17:36;100774.03;;;9.89;62.37
84967;BME280;75275;51.348;12.358;2024-02-21T08:20:03;100775.16;;;9.93;62.92
84967;BME280;75275;51.348;12.358;2024-02-21T08:22:31;100763.75;;;10.01;62.50
84967;BME280;75275;51.348;12.358;2024-02-21T08:24:58;100761.72;;;10.19;62.24
84967;BME280;75275;51.348;12.358;2024-02-21T08:27:25;100762.94;;;10.28;61.67
84967;BME280;75275;51.348;12.358;2024-02-21T08:29:53;100753.41;;;10.35;60.79
84967;BME280;75275;51.348;12.358;2024-02-21T08:32:20;100759.00;;;10.51;60.95
84967;BME280;75275;51.348;12.358;2024-02-21T08:34:47;100761.34;;;10.37;60.23
84967;BME280;75275;51.348;12.358;2024-02-21T08:37:14;100758.88;;;10.35;60.68
84967;BME280;75275;51.348;12.358;2024-02-21T08:39:41;100754.38;;;10.24;60.89
84967;BME280;75275;51.348;12.358;2024-02-21T08:42:09;100769.91;;;10.13;61.18
84967;BME280;75275;51.348;12.358;2024-02-21T08:44:36;100770.09;;;10.07;61.68
84967;BME280;75275;51.348;12.358;2024-02-21T08:47:07;100780.69;;;9.98;61.96
84967;BME280;75275;51.348;12.358;2024-02-21T08:49:35;100780.03;;;9.86;62.12
84967;BME280;75275;51.348;12.358;2024-02-21T08:52:03;100779.19;;;9.85;62.79
84967;BME280;75275;51.348;12.358;2024-02-21T08:54:30;100762.47;;;9.82;62.84
84967;BME280;75275;51.348;12.358;2024-02-21T08:56:58;100779.72;;;9.82;62.86
84967;BME280;75275;51.348;12.358;2024-02-21T08:59:25;100772.31;;;9.83;63.28
84967;BME280;75275;51.348;12.358;2024-02-21T09:01:51;100773.44;;;9.87;63.05
84967;BME280;75275;51.348;12.358;2024-02-21T09:04:20;100773.00;;;9.95;63.13
84967;BME280;75275;51.348;12.358;2024-02-21T09:06:47;100767.53;;;9.95;63.16
84967;BME280;75275;51.348;12.358;2024-02-21T09:09:18;100764.25;;;9.98;62.78
84967;BME280;75275;51.348;12.358;2024-02-21T09:11:45;100766.47;;;10.01;62.31
84967;BME280;75275;51.348;12.358;2024-02-21T09:14:11;100769.19;;;9.96;62.85
84967;BME280;75275;51.348;12.358;2024-02-21T09:16:38;100777.69;;;10.00;63.01
84967;BME280;75275;51.348;12.358;2024-02-21T09:19:06;100788.84;;;9.93;62.63
84967;BME280;75275;51.348;12.358;2024-02-21T09:21:38;100782.03;;;9.96;62.69
84967;BME280;75275;51.348;12.358;2024-02-21T09:24:06;100777.22;;;10.08;62.61
84967;BME280;75275;51.348;12.358;2024-02-21T09:26:33;100769.97;;;10.24;62.03
84967;BME280;75275;51.348;12.358;2024-02-21T09:29:00;100768.97;;;10.30;61.71
84967;BME280;75275;51.348;12.358;2024-02-21T09:31:27;100764.59;;;10.34;61.38
84967;BME280;75275;51.348;12.358;2024-02-21T09:33:54;100770.41;;;10.38;61.64
84967;BME280;75275;51.348;12.358;2024-02-21T09:36:20;100772.78;;;10.29;61.11
84967;BME280;75275;51.348;12.358;2024-02-21T09:38:49;100766.81;;;10.32;61.40
84967;BME280;75275;51.348;12.358;2024-02-21T09:41:17;100756.06;;;10.25;61.60
84967;BME280;75275;51.348;12.358;2024-02-21T09:43:44;100760.81;;;10.35;61.20
84967;BME280;75275;51.348;12.358;2024-02-21T09:46:16;100767.44;;;10.44;61.08
84967;BME280;75275;51.348;12.358;2024-02-21T09:48:58;100766.84;;;10.37;60.99
84967;BME280;75275;51.348;12.358;2024-02-21T09:51:32;100778.38;;;10.39;61.10
84967;BME280;75275;51.348;12.358;2024-02-21T09:54:03;100775.22;;;10.57;60.80
84967;BME280;75275;51.348;12.358;2024-02-21T09:56:30;100760.22;;;10.70;60.24
84967;BME280;75275;51.348;12.358;2024-02-21T09:59:04;100752.38;;;10.84;59.71
84967;BME280;75275;51.348;12.358;2024-02-21T10:01:31;100754.66;;;11.02;58.96
84967;BME280;75275;51.348;12.358;2024-02-21T10:03:58;100751.69;;;11.09;58.69
84967;BME280;75275;51.348;12.358;2024-02-21T10:06:25;100759.59;;;11.00;58.79
84967;BME280;75275;51.348;12.358;2024-02-21T10:08:53;100736.56;;;11.01;58.82
84967;BME280;75275;51.348;12.358;2024-02-21T10:11:26;100750.34;;;11.12;57.96
84967;BME280;75275;51.348;12.358;2024-02-21T10:14:02;100750.03;;;11.08;58.12
84967;BME280;75275;51.348;12.358;2024-02-21T10:16:30;100739.56;;;11.00;58.11
84967;BME280;75275;51.348;12.358;2024-02-21T10:18:57;100733.78;;;10.96;57.96
84967;BME280;75275;51.348;12.358;2024-02-21T10:21:24;100728.59;;;11.00;57.67
84967;BME280;75275;51.348;12.358;2024-02-21T10:23:53;100740.19;;;11.17;57.61
84967;BME280;75275;51.348;12.358;2024-02-21T10:26:20;100736.63;;;11.17;57.64
84967;BME280;75275;51.348;12.358;2024-02-21T10:28:50;100730.38;;;11.26;57.23
84967;BME280;75275;51.348;12.358;2024-02-21T10:31:22;100736.16;;;11.35;56.93
84967;BME280;75275;51.348;12.358;2024-02-21T10:33:56;100730.72;;;11.40;57.04
84967;BME280;75275;51.348;12.358;2024-02-21T10:36:23;100729.34;;;11.48;56.72
84967;BME280;75275;51.348;12.358;2024-02-21T10:38:50;100726.88;;;11.46;56.54
84967;BME280;75275;51.348;12.358;2024-02-21T10:41:19;100727.97;;;11.40;56.51
84967;BME280;75275;51.348;12.358;2024-02-21T10:43:52;100721.91;;;11.33;56.72
84967;BME280;75275;51.348;12.358;2024-02-21T10:46:21;100716.13;;;11.29;56.82
84967;BME280;75275;51.348;12.358;2024-02-21T10:48:53;100721.78;;;11.07;57.42
84967;BME280;75275;51.348;12.358;2024-02-21T10:51:29;100721.81;;;11.18;57.29
84967;BME280;75275;51.348;12.358;2024-02-21T10:54:08;100715.75;;;11.11;57.31
84967;BME280;75275;51.348;12.358;2024-02-21T10:56:40;100718.25;;;11.17;57.50
84967;BME280;75275;51.348;12.358;2024-02-21T10:59:10;100704.34;;;11.39;56.79
84967;BME280;75275;51.348;12.358;2024-02-21T11:01:40;100703.25;;;11.45;56.62
84967;BME280;75275;51.348;12.358;2024-02-21T11:04:08;100706.56;;;11.57;56.06
84967;BME280;75275;51.348;12.358;2024-02-21T11:06:37;100698.06;;;11.54;56.37
84967;BME280;75275;51.348;12.358;2024-02-21T11:09:06;100696.13;;;11.49;56.72
84967;BME280;75275;51.348;12.358;2024-02-21T11:11:34;100678.56;;;11.50;56.44
84967;BME280;75275;51.348;12.358;2024-02-21T11:14:05;100673.66;;;11.78;55.96
84967;BME280;75275;51.348;12.358;2024-02-21T11:16:37;100670.16;;;12.03;54.96
84967;BME280;75275;51.348;12.358;2024-02-21T11:19:09;100652.81;;;12.13;54.71
84967;BME280;75275;51.348;12.358;2024-02-21T11:21:41;100658.88;;;11.94;55.06
84967;BME280;75275;51.348;12.358;2024-02-21T11:24:08;100648.97;;;12.09;55.16
84967;BME280;75275;51.348;12.358;2024-02-21T11:26:37;100640.16;;;12.32;54.27
84967;BME280;75275;51.348;12.358;2024-02-21T11:29:06;100631.63;;;12.39;53.80
84967;BME280;75275;51.348;12.358;2024-02-21T11:31:43;100622.53;;;12.48;53.97
84967;BME280;75275;51.348;12.358;2024-02-21T11:34:11;100615.38;;;12.58;53.69
84967;BME280;75275;51.348;12.358;2024-02-21T11:36:48;100612.59;;;12.63;53.45
84967;BME280;75275;51.348;12.358;2024-02-21T11:39:23;100606.50;;;12.76;53.34
84967;BME280;75275;51.348;12.358;2024-02-21T11:42:01;100605.72;;;12.65;53.19
84967;BME280;75275;51.348;12.358;2024-02-21T11:44:31;100595.00;;;12.59;53.48
84967;BME280;75275;51.348;12.358;2024-02-21T11:46:59;100586.53;;;12.40;54.19
84967;BME280;75275;51.348;12.358;2024-02-21T11:49:28;100581.88;;;12.40;54.28
84967;BME280;75275;51.348;12.358;2024-02-21T11:51:59;100575.25;;;12.46;54.18
84967;BME280;75275;51.348;12.358;2024-02-21T11:54:26;100566.41;;;12.55;53.86
84967;BME280;75275;51.348;12.358;2024-02-21T11:56:56;100558.66;;;12.67;53.78
84967;BME280;75275;51.348;12.358;2024-02-21T11:59:23;100562.56;;;12.61;54.03
84967;BME280;75275;51.348;12.358;2024-02-21T12:01:50;100559.28;;;12.53;54.49
84967;BME280;75275;51.348;12.358;2024-02-21T12:04:20;100550.47;;;12.51;54.47
84967;BME280;75275;51.348;12.358;2024-02-21T12:06:49;100554.03;;;12.57;54.50
84967;BME280;75275;51.348;12.358;2024-02-21T12:09:17;100556.50;;;12.64;54.02
84967;BME280;75275;51.348;12.358;2024-02-21T12:11:45;100550.00;;;12.94;53.35
84967;BME280;75275;51.348;12.358;2024-02-21T12:14:16;100528.88;;;13.34;51.94
84967;BME280;75275;51.348;12.358;2024-02-21T12:16:45;100529.63;;;13.39;51.36
84967;BME280;75275;51.348;12.358;2024-02-21T12:19:13;100528.53;;;12.96;52.67
84967;BME280;75275;51.348;12.358;2024-02-21T12:21:43;100524.69;;;12.92;53.21
84967;BME280;75275;51.348;12.358;2024-02-21T12:24:14;100519.50;;;12.90;53.18
84967;BME280;75275;51.348;12.358;2024-02-21T12:26:41;100511.19;;;12.95;53.21
84967;BME280;75275;51.348;12.358;2024-02-21T12:29:08;100515.56;;;13.01;53.52
84967;BME280;75275;51.348;12.358;2024-02-21T12:31:36;100507.16;;;13.27;52.48
84967;BME280;75275;51.348;12.358;2024-02-21T12:34:03;100494.63;;;13.45;52.21
84967;BME280;75275;51.348;12.358;2024-02-21T12:36:30;100503.56;;;13.61;51.54
84967;BME280;75275;51.348;12.358;2024-02-21T12:39:00;100503.78;;;13.69;51.58
84967;BME280;75275;51.348;12.358;2024-02-21T12:41:28;100498.09;;;13.56;51.80
84967;BME280;75275;51.348;12.358;2024-02-21T12:43:58;100489.63;;;13.47;51.62
84967;BME280;75275;51.348;12.358;2024-02-21T12:46:26;100484.91;;;13.53;51.51
84967;BME280;75275;51.348;12.358;2024-02-21T12:48:53;100476.66;;;13.53;51.67
84967;BME280;75275;51.348;12.358;2024-02-21T12:51:20;100474.19;;;13.51;52.00
84967;BME280;75275;51.348;12.358;2024-02-21T12:53:47;100466.50;;;13.48;51.75
84967;BME280;75275;51.348;12.358;2024-02-21T12:56:16;100465.06;;;13.56;51.84
84967;BME280;75275;51.348;12.358;2024-02-21T12:58:43;100454.66;;;13.77;51.99